sensor_id;sensor_type;location;lat;lon;timestamp;P1;durP1;ratioP1;P2;durP2;ratioP2
73793;SDS011;62123;52.518;10.528;2022-07-23T00:00:52;4.87;;;2.57;;
73793;SDS011;62123;52.518;10.528;2022-07-23T00:03:18;4.53;;;2.70;;
73793;SDS011;62123;52.518;10.528;2022-07-23T00:05:43;4.90;;;3.55;;
73793;SDS011;62123;52.518;10.528;2022-07-23T00:08:09;5.60;;;2.83;;
73793;SDS011;62123;52.518;10.528;2022-07-23T00:10:34;4.90;;;2.77;;
73793;SDS011;62123;52.518;10.528;2022-07-23T00:13:00;4.78;;;2.55;;
73793;SDS011;62123;52.518;10.528;2022-07-23T00:15:25;4.83;;;2.60;;
73793;SDS011;62123;52.518;10.528;2022-07-23T00:17:51;4.70;;;2.50;;
73793;SDS011;62123;52.518;10.528;2022-07-23T00:20:16;4.70;;;2.72;;
73793;SDS011;62123;52.518;10.528;2022-07-23T00:22:52;4.70;;;2.57;;
73793;SDS011;62123;52.518;10.528;2022-07-23T00:25:19;5.03;;;3.05;;
73793;SDS011;62123;52.518;10.528;2022-07-23T00:27:48;5.40;;;2.97;;
73793;SDS011;62123;52.518;10.528;2022-07-23T00:30:13;4.47;;;2.43;;
73793;SDS011;62123;52.518;10.528;2022-07-23T00:32:49;4.47;;;2.63;;
73793;SDS011;62123;52.518;10.528;2022-07-23T00:35:18;6.10;;;2.50;;
73793;SDS011;62123;52.518;10.528;2022-07-23T00:37:45;5.05;;;2.20;;
73793;SDS011;62123;52.518;10.528;2022-07-23T00:40:11;4.40;;;3.20;;
73793;SDS011;62123;52.518;10.528;2022-07-23T00:42:36;4.53;;;2.95;;
73793;SDS011;62123;52.518;10.528;2022-07-23T00:45:02;4.70;;;3.07;;
73793;SDS011;62123;52.518;10.528;2022-07-23T00:47:28;5.18;;;2.63;;
73793;SDS011;62123;52.518;10.528;2022-07-23T00:49:54;5.80;;;2.70;;
73793;SDS011;62123;52.518;10.528;2022-07-23T00:52:19;5.05;;;2.80;;
73793;SDS011;62123;52.518;10.528;2022-07-23T00:54:45;4.70;;;2.90;;
73793;SDS011;62123;52.518;10.528;2022-07-23T00:57:10;4.75;;;2.50;;
73793;SDS011;62123;52.518;10.528;2022-07-23T00:59:38;5.00;;;2.37;;
73793;SDS011;62123;52.518;10.528;2022-07-23T01:02:03;4.82;;;2.65;;
73793;SDS011;62123;52.518;10.528;2022-07-23T01:04:30;4.40;;;2.37;;
73793;SDS011;62123;52.518;10.528;2022-07-23T01:06:55;4.72;;;3.03;;
73793;SDS011;62123;52.518;10.528;2022-07-23T01:09:21;5.37;;;2.43;;
73793;SDS011;62123;52.518;10.528;2022-07-23T01:11:46;4.93;;;2.53;;
73793;SDS011;62123;52.518;10.528;2022-07-23T01:14:13;4.57;;;2.97;;
73793;SDS011;62123;52.518;10.528;2022-07-23T01:16:41;4.57;;;2.97;;
73793;SDS011;62123;52.518;10.528;2022-07-23T01:19:07;4.73;;;2.30;;
73793;SDS011;62123;52.518;10.528;2022-07-23T01:21:37;4.38;;;2.90;;
73793;SDS011;62123;52.518;10.528;2022-07-23T01:24:05;4.32;;;2.42;;
73793;SDS011;62123;52.518;10.528;2022-07-23T01:26:31;5.00;;;2.93;;
73793;SDS011;62123;52.518;10.528;2022-07-23T01:28:56;4.60;;;3.03;;
73793;SDS011;62123;52.518;10.528;2022-07-23T01:31:22;4.20;;;2.63;;
73793;SDS011;62123;52.518;10.528;2022-07-23T01:33:47;4.63;;;2.83;;
73793;SDS011;62123;52.518;10.528;2022-07-23T01:36:13;4.47;;;2.40;;
73793;SDS011;62123;52.518;10.528;2022-07-23T01:38:38;5.10;;;2.40;;
73793;SDS011;62123;52.518;10.528;2022-07-23T01:41:04;4.65;;;2.55;;
73793;SDS011;62123;52.518;10.528;2022-07-23T01:43:30;4.23;;;2.53;;
73793;SDS011;62123;52.518;10.528;2022-07-23T01:45:55;4.40;;;2.30;;
73793;SDS011;62123;52.518;10.528;2022-07-23T01:48:20;4.53;;;2.80;;
73793;SDS011;62123;52.518;10.528;2022-07-23T01:50:46;4.63;;;2.50;;
73793;SDS011;62123;52.518;10.528;2022-07-23T01:53:12;4.90;;;2.92;;
73793;SDS011;62123;52.518;10.528;2022-07-23T01:55:38;4.32;;;2.70;;
73793;SDS011;62123;52.518;10.528;2022-07-23T01:58:04;4.50;;;2.60;;
73793;SDS011;62123;52.518;10.528;2022-07-23T02:00:30;4.82;;;2.90;;
73793;SDS011;62123;52.518;10.528;2022-07-23T02:02:56;3.67;;;2.07;;
73793;SDS011;62123;52.518;10.528;2022-07-23T02:05:23;4.63;;;2.33;;
73793;SDS011;62123;52.518;10.528;2022-07-23T02:07:50;4.00;;;2.42;;
73793;SDS011;62123;52.518;10.528;2022-07-23T02:10:15;4.60;;;2.23;;
73793;SDS011;62123;52.518;10.528;2022-07-23T02:12:41;4.67;;;2.33;;
73793;SDS011;62123;52.518;10.528;2022-07-23T02:15:06;4.15;;;2.40;;
73793;SDS011;62123;52.518;10.528;2022-07-23T02:17:32;4.53;;;2.77;;
73793;SDS011;62123;52.518;10.528;2022-07-23T02:19:57;4.65;;;2.88;;
73793;SDS011;62123;52.518;10.528;2022-07-23T02:22:23;4.00;;;2.27;;
73793;SDS011;62123;52.518;10.528;2022-07-23T02:24:48;4.83;;;2.70;;
73793;SDS011;62123;52.518;10.528;2022-07-23T02:27:14;4.20;;;2.87;;
73793;SDS011;62123;52.518;10.528;2022-07-23T02:29:39;4.35;;;2.38;;
73793;SDS011;62123;52.518;10.528;2022-07-23T02:32:04;4.63;;;2.10;;
73793;SDS011;62123;52.518;10.528;2022-07-23T02:34:30;4.30;;;2.30;;
73793;SDS011;62123;52.518;10.528;2022-07-23T02:36:56;3.80;;;2.47;;
73793;SDS011;62123;52.518;10.528;2022-07-23T02:39:21;4.97;;;2.53;;
73793;SDS011;62123;52.518;10.528;2022-07-23T02:41:47;4.30;;;2.63;;
73793;SDS011;62123;52.518;10.528;2022-07-23T02:44:12;3.87;;;2.37;;
73793;SDS011;62123;52.518;10.528;2022-07-23T02:46:37;4.03;;;2.27;;
73793;SDS011;62123;52.518;10.528;2022-07-23T02:49:03;3.50;;;2.10;;
73793;SDS011;62123;52.518;10.528;2022-07-23T02:51:30;4.30;;;2.80;;
73793;SDS011;62123;52.518;10.528;2022-07-23T02:53:56;5.53;;;2.85;;
73793;SDS011;62123;52.518;10.528;2022-07-23T02:56:21;4.47;;;2.17;;
73793;SDS011;62123;52.518;10.528;2022-07-23T02:58:47;4.40;;;2.20;;
73793;SDS011;62123;52.518;10.528;2022-07-23T03:01:13;3.97;;;1.93;;
73793;SDS011;62123;52.518;10.528;2022-07-23T03:03:38;5.00;;;3.10;;
73793;SDS011;62123;52.518;10.528;2022-07-23T03:06:04;4.73;;;2.93;;
73793;SDS011;62123;52.518;10.528;2022-07-23T03:08:29;4.93;;;2.87;;
73793;SDS011;62123;52.518;10.528;2022-07-23T03:10:55;4.47;;;2.42;;
73793;SDS011;62123;52.518;10.528;2022-07-23T03:13:23;4.90;;;2.73;;
73793;SDS011;62123;52.518;10.528;2022-07-23T03:15:49;3.97;;;2.10;;
73793;SDS011;62123;52.518;10.528;2022-07-23T03:18:14;4.53;;;2.50;;
73793;SDS011;62123;52.518;10.528;2022-07-23T03:20:40;3.80;;;2.50;;
73793;SDS011;62123;52.518;10.528;2022-07-23T03:23:05;4.53;;;2.63;;
73793;SDS011;62123;52.518;10.528;2022-07-23T03:25:31;4.68;;;2.83;;
73793;SDS011;62123;52.518;10.528;2022-07-23T03:27:56;6.23;;;2.27;;
73793;SDS011;62123;52.518;10.528;2022-07-23T03:33:07;3.87;;;2.70;;
73793;SDS011;62123;52.518;10.528;2022-07-23T03:35:33;4.85;;;2.78;;
73793;SDS011;62123;52.518;10.528;2022-07-23T03:37:58;3.67;;;2.20;;
73793;SDS011;62123;52.518;10.528;2022-07-23T03:40:24;3.80;;;2.77;;
73793;SDS011;62123;52.518;10.528;2022-07-23T03:42:50;6.13;;;2.55;;
73793;SDS011;62123;52.518;10.528;2022-07-23T03:45:15;3.80;;;2.37;;
73793;SDS011;62123;52.518;10.528;2022-07-23T03:47:41;5.10;;;2.67;;
73793;SDS011;62123;52.518;10.528;2022-07-23T03:50:06;4.68;;;2.33;;
73793;SDS011;62123;52.518;10.528;2022-07-23T03:52:32;4.20;;;2.50;;
73793;SDS011;62123;52.518;10.528;2022-07-23T03:54:58;4.93;;;2.40;;
73793;SDS011;62123;52.518;10.528;2022-07-23T03:57:23;3.73;;;2.07;;
73793;SDS011;62123;52.518;10.528;2022-07-23T03:59:49;4.68;;;2.70;;
73793;SDS011;62123;52.518;10.528;2022-07-23T04:02:14;3.57;;;2.27;;
73793;SDS011;62123;52.518;10.528;2022-07-23T04:04:40;4.97;;;2.43;;
73793;SDS011;62123;52.518;10.528;2022-07-23T04:07:05;4.78;;;3.08;;
73793;SDS011;62123;52.518;10.528;2022-07-23T04:09:32;4.43;;;2.47;;
73793;SDS011;62123;52.518;10.528;2022-07-23T04:11:58;4.47;;;2.23;;
73793;SDS011;62123;52.518;10.528;2022-07-23T04:14:24;4.20;;;2.33;;
73793;SDS011;62123;52.518;10.528;2022-07-23T04:16:49;4.03;;;2.30;;
73793;SDS011;62123;52.518;10.528;2022-07-23T04:19:14;4.97;;;2.80;;
73793;SDS011;62123;52.518;10.528;2022-07-23T04:21:40;4.83;;;2.83;;
73793;SDS011;62123;52.518;10.528;2022-07-23T04:24:05;5.28;;;2.90;;
73793;SDS011;62123;52.518;10.528;2022-07-23T04:26:31;4.47;;;2.30;;
73793;SDS011;62123;52.518;10.528;2022-07-23T04:28:56;4.10;;;2.35;;
73793;SDS011;62123;52.518;10.528;2022-07-23T04:31:22;4.17;;;2.50;;
73793;SDS011;62123;52.518;10.528;2022-07-23T04:33:48;4.83;;;2.40;;
73793;SDS011;62123;52.518;10.528;2022-07-23T04:36:13;3.85;;;1.98;;
73793;SDS011;62123;52.518;10.528;2022-07-23T04:38:38;5.87;;;2.20;;
73793;SDS011;62123;52.518;10.528;2022-07-23T04:41:04;4.33;;;2.53;;
73793;SDS011;62123;52.518;10.528;2022-07-23T04:43:29;4.28;;;2.50;;
73793;SDS011;62123;52.518;10.528;2022-07-23T04:45:55;4.60;;;2.50;;
73793;SDS011;62123;52.518;10.528;2022-07-23T04:48:21;5.53;;;2.80;;
73793;SDS011;62123;52.518;10.528;2022-07-23T04:50:46;4.03;;;2.13;;
73793;SDS011;62123;52.518;10.528;2022-07-23T04:53:12;4.47;;;2.87;;
73793;SDS011;62123;52.518;10.528;2022-07-23T04:55:37;4.28;;;2.72;;
73793;SDS011;62123;52.518;10.528;2022-07-23T04:58:03;4.23;;;2.47;;
73793;SDS011;62123;52.518;10.528;2022-07-23T05:00:28;3.50;;;2.13;;
73793;SDS011;62123;52.518;10.528;2022-07-23T05:02:54;4.32;;;2.63;;
73793;SDS011;62123;52.518;10.528;2022-07-23T05:05:19;3.77;;;2.30;;
73793;SDS011;62123;52.518;10.528;2022-07-23T05:07:45;4.05;;;2.55;;
73793;SDS011;62123;52.518;10.528;2022-07-23T05:10:10;4.13;;;2.50;;
73793;SDS011;62123;52.518;10.528;2022-07-23T05:12:36;5.10;;;2.90;;
73793;SDS011;62123;52.518;10.528;2022-07-23T05:15:01;5.10;;;2.60;;
73793;SDS011;62123;52.518;10.528;2022-07-23T05:17:27;4.60;;;2.73;;
73793;SDS011;62123;52.518;10.528;2022-07-23T05:19:52;4.43;;;2.80;;
73793;SDS011;62123;52.518;10.528;2022-07-23T05:22:18;3.65;;;2.63;;
73793;SDS011;62123;52.518;10.528;2022-07-23T05:24:44;4.13;;;2.40;;
73793;SDS011;62123;52.518;10.528;2022-07-23T05:27:09;4.57;;;2.50;;
73793;SDS011;62123;52.518;10.528;2022-07-23T05:29:35;3.70;;;2.07;;
73793;SDS011;62123;52.518;10.528;2022-07-23T05:32:00;4.40;;;2.23;;
73793;SDS011;62123;52.518;10.528;2022-07-23T05:34:26;4.22;;;2.60;;
73793;SDS011;62123;52.518;10.528;2022-07-23T05:36:51;4.63;;;2.30;;
73793;SDS011;62123;52.518;10.528;2022-07-23T05:39:17;3.77;;;1.87;;
73793;SDS011;62123;52.518;10.528;2022-07-23T05:41:42;7.13;;;3.20;;
73793;SDS011;62123;52.518;10.528;2022-07-23T05:44:08;4.37;;;2.70;;
73793;SDS011;62123;52.518;10.528;2022-07-23T05:46:33;4.40;;;2.57;;
73793;SDS011;62123;52.518;10.528;2022-07-23T05:48:59;4.33;;;2.30;;
73793;SDS011;62123;52.518;10.528;2022-07-23T05:51:24;4.60;;;2.20;;
73793;SDS011;62123;52.518;10.528;2022-07-23T05:53:50;4.25;;;2.55;;
73793;SDS011;62123;52.518;10.528;2022-07-23T05:56:17;3.93;;;2.17;;
73793;SDS011;62123;52.518;10.528;2022-07-23T05:58:43;4.57;;;2.33;;
73793;SDS011;62123;52.518;10.528;2022-07-23T06:01:09;4.50;;;1.98;;
73793;SDS011;62123;52.518;10.528;2022-07-23T06:03:34;5.10;;;2.80;;
73793;SDS011;62123;52.518;10.528;2022-07-23T06:06:00;3.58;;;1.92;;
73793;SDS011;62123;52.518;10.528;2022-07-23T06:08:25;4.00;;;2.27;;
73793;SDS011;62123;52.518;10.528;2022-07-23T06:10:50;4.07;;;2.30;;
73793;SDS011;62123;52.518;10.528;2022-07-23T06:13:19;4.73;;;2.30;;
73793;SDS011;62123;52.518;10.528;2022-07-23T06:15:45;4.18;;;2.53;;
73793;SDS011;62123;52.518;10.528;2022-07-23T06:18:10;4.03;;;2.47;;
73793;SDS011;62123;52.518;10.528;2022-07-23T06:20:35;5.93;;;2.07;;
73793;SDS011;62123;52.518;10.528;2022-07-23T06:23:01;3.83;;;2.47;;
73793;SDS011;62123;52.518;10.528;2022-07-23T06:25:27;3.90;;;2.30;;
73793;SDS011;62123;52.518;10.528;2022-07-23T06:27:52;3.57;;;1.83;;
73793;SDS011;62123;52.518;10.528;2022-07-23T06:30:18;3.80;;;2.08;;
73793;SDS011;62123;52.518;10.528;2022-07-23T06:32:45;3.17;;;1.70;;
73793;SDS011;62123;52.518;10.528;2022-07-23T06:35:11;4.05;;;2.25;;
73793;SDS011;62123;52.518;10.528;2022-07-23T06:37:36;4.20;;;1.90;;
73793;SDS011;62123;52.518;10.528;2022-07-23T06:40:02;3.78;;;1.85;;
73793;SDS011;62123;52.518;10.528;2022-07-23T06:42:28;4.30;;;2.42;;
73793;SDS011;62123;52.518;10.528;2022-07-23T06:44:53;3.87;;;2.13;;
73793;SDS011;62123;52.518;10.528;2022-07-23T06:47:19;4.70;;;2.37;;
73793;SDS011;62123;52.518;10.528;2022-07-23T06:49:44;3.70;;;1.80;;
73793;SDS011;62123;52.518;10.528;2022-07-23T06:52:10;3.58;;;1.88;;
73793;SDS011;62123;52.518;10.528;2022-07-23T06:54:35;3.77;;;2.37;;
73793;SDS011;62123;52.518;10.528;2022-07-23T06:57:01;3.33;;;1.80;;
73793;SDS011;62123;52.518;10.528;2022-07-23T06:59:26;4.28;;;2.38;;
73793;SDS011;62123;52.518;10.528;2022-07-23T07:01:52;4.07;;;2.40;;
73793;SDS011;62123;52.518;10.528;2022-07-23T07:04:17;3.40;;;1.80;;
73793;SDS011;62123;52.518;10.528;2022-07-23T07:06:43;3.63;;;2.35;;
73793;SDS011;62123;52.518;10.528;2022-07-23T07:09:08;3.70;;;2.20;;
73793;SDS011;62123;52.518;10.528;2022-07-23T07:11:34;3.40;;;1.50;;
73793;SDS011;62123;52.518;10.528;2022-07-23T07:14:00;4.13;;;2.47;;
73793;SDS011;62123;52.518;10.528;2022-07-23T07:16:25;3.50;;;2.00;;
73793;SDS011;62123;52.518;10.528;2022-07-23T07:26:08;3.90;;;2.20;;
73793;SDS011;62123;52.518;10.528;2022-07-23T07:28:33;5.00;;;2.03;;
73793;SDS011;62123;52.518;10.528;2022-07-23T07:30:59;3.80;;;1.90;;
73793;SDS011;62123;52.518;10.528;2022-07-23T07:33:24;3.75;;;1.98;;
73793;SDS011;62123;52.518;10.528;2022-07-23T07:35:50;3.63;;;1.73;;
73793;SDS011;62123;52.518;10.528;2022-07-23T07:38:15;3.50;;;1.90;;
73793;SDS011;62123;52.518;10.528;2022-07-23T07:40:41;3.72;;;1.98;;
73793;SDS011;62123;52.518;10.528;2022-07-23T07:43:06;4.20;;;1.90;;
73793;SDS011;62123;52.518;10.528;2022-07-23T07:45:32;4.50;;;1.80;;
73793;SDS011;62123;52.518;10.528;2022-07-23T07:47:57;4.38;;;1.70;;
73793;SDS011;62123;52.518;10.528;2022-07-23T07:50:23;3.33;;;1.87;;
73793;SDS011;62123;52.518;10.528;2022-07-23T07:52:49;6.43;;;2.40;;
73793;SDS011;62123;52.518;10.528;2022-07-23T07:55:15;3.83;;;2.17;;
73793;SDS011;62123;52.518;10.528;2022-07-23T07:57:41;3.70;;;1.88;;
73793;SDS011;62123;52.518;10.528;2022-07-23T08:00:07;4.87;;;2.10;;
73793;SDS011;62123;52.518;10.528;2022-07-23T08:02:43;4.25;;;1.75;;
73793;SDS011;62123;52.518;10.528;2022-07-23T08:05:09;5.00;;;1.75;;
73793;SDS011;62123;52.518;10.528;2022-07-23T08:07:34;4.57;;;1.90;;
73793;SDS011;62123;52.518;10.528;2022-07-23T08:10:00;4.35;;;1.88;;
73793;SDS011;62123;52.518;10.528;2022-07-23T08:12:25;3.80;;;2.20;;
73793;SDS011;62123;52.518;10.528;2022-07-23T08:14:51;3.37;;;1.70;;
73793;SDS011;62123;52.518;10.528;2022-07-23T08:17:17;3.45;;;1.85;;
73793;SDS011;62123;52.518;10.528;2022-07-23T08:19:43;3.57;;;1.80;;
73793;SDS011;62123;52.518;10.528;2022-07-23T08:22:08;3.25;;;1.52;;
73793;SDS011;62123;52.518;10.528;2022-07-23T08:24:34;3.50;;;1.90;;
73793;SDS011;62123;52.518;10.528;2022-07-23T08:26:59;4.40;;;1.70;;
73793;SDS011;62123;52.518;10.528;2022-07-23T08:29:24;4.82;;;1.83;;
73793;SDS011;62123;52.518;10.528;2022-07-23T08:31:50;3.40;;;1.67;;
73793;SDS011;62123;52.518;10.528;2022-07-23T08:34:15;3.33;;;1.80;;
73793;SDS011;62123;52.518;10.528;2022-07-23T08:36:41;2.90;;;1.40;;
73793;SDS011;62123;52.518;10.528;2022-07-23T08:39:06;3.50;;;1.50;;
73793;SDS011;62123;52.518;10.528;2022-07-23T08:41:32;3.87;;;1.70;;
73793;SDS011;62123;52.518;10.528;2022-07-23T08:43:57;5.60;;;2.13;;
73793;SDS011;62123;52.518;10.528;2022-07-23T08:46:26;3.37;;;2.10;;
73793;SDS011;62123;52.518;10.528;2022-07-23T08:48:51;5.28;;;1.70;;
73793;SDS011;62123;52.518;10.528;2022-07-23T08:51:17;4.33;;;1.70;;
73793;SDS011;62123;52.518;10.528;2022-07-23T08:53:43;3.85;;;1.58;;
73793;SDS011;62123;52.518;10.528;2022-07-23T08:56:09;3.92;;;1.98;;
73793;SDS011;62123;52.518;10.528;2022-07-23T08:58:35;4.30;;;1.83;;
73793;SDS011;62123;52.518;10.528;2022-07-23T09:01:00;3.00;;;1.60;;
73793;SDS011;62123;52.518;10.528;2022-07-23T09:03:36;3.33;;;1.98;;
73793;SDS011;62123;52.518;10.528;2022-07-23T09:06:03;3.97;;;1.60;;
73793;SDS011;62123;52.518;10.528;2022-07-23T09:08:39;3.87;;;1.50;;
73793;SDS011;62123;52.518;10.528;2022-07-23T09:11:08;3.20;;;1.67;;
73793;SDS011;62123;52.518;10.528;2022-07-23T09:13:39;3.95;;;2.15;;
73793;SDS011;62123;52.518;10.528;2022-07-23T09:23:56;3.72;;;2.10;;
73793;SDS011;62123;52.518;10.528;2022-07-23T09:26:39;2.90;;;1.53;;
73793;SDS011;62123;52.518;10.528;2022-07-23T09:29:10;3.60;;;1.83;;
73793;SDS011;62123;52.518;10.528;2022-07-23T09:31:49;3.33;;;1.65;;
73793;SDS011;62123;52.518;10.528;2022-07-23T09:36:48;3.33;;;1.40;;
73793;SDS011;62123;52.518;10.528;2022-07-23T09:39:16;4.60;;;1.95;;
73793;SDS011;62123;52.518;10.528;2022-07-23T09:41:50;3.20;;;1.25;;
73793;SDS011;62123;52.518;10.528;2022-07-23T09:44:19;3.50;;;1.50;;
73793;SDS011;62123;52.518;10.528;2022-07-23T09:46:49;3.08;;;1.42;;
73793;SDS011;62123;52.518;10.528;2022-07-23T09:49:19;3.27;;;1.07;;
73793;SDS011;62123;52.518;10.528;2022-07-23T09:51:56;3.30;;;1.70;;
73793;SDS011;62123;52.518;10.528;2022-07-23T09:56:51;3.00;;;1.53;;
73793;SDS011;62123;52.518;10.528;2022-07-23T09:59:18;3.30;;;1.25;;
73793;SDS011;62123;52.518;10.528;2022-07-23T10:01:50;3.53;;;1.60;;
73793;SDS011;62123;52.518;10.528;2022-07-23T10:04:15;2.93;;;1.40;;
73793;SDS011;62123;52.518;10.528;2022-07-23T10:06:41;3.67;;;1.30;;
73793;SDS011;62123;52.518;10.528;2022-07-23T10:09:08;2.58;;;1.20;;
73793;SDS011;62123;52.518;10.528;2022-07-23T10:11:37;3.22;;;1.33;;
73793;SDS011;62123;52.518;10.528;2022-07-23T10:14:03;3.37;;;1.43;;
73793;SDS011;62123;52.518;10.528;2022-07-23T10:16:30;3.22;;;1.98;;
73793;SDS011;62123;52.518;10.528;2022-07-23T10:18:56;3.30;;;1.60;;
73793;SDS011;62123;52.518;10.528;2022-07-23T10:21:25;3.40;;;1.60;;
73793;SDS011;62123;52.518;10.528;2022-07-23T10:24:01;3.05;;;1.48;;
73793;SDS011;62123;52.518;10.528;2022-07-23T10:29:48;3.73;;;1.70;;
73793;SDS011;62123;52.518;10.528;2022-07-23T10:37:37;2.90;;;1.10;;
73793;SDS011;62123;52.518;10.528;2022-07-23T10:40:08;3.53;;;1.50;;
73793;SDS011;62123;52.518;10.528;2022-07-23T10:42:37;3.22;;;1.23;;
73793;SDS011;62123;52.518;10.528;2022-07-23T10:47:51;3.63;;;1.30;;
73793;SDS011;62123;52.518;10.528;2022-07-23T10:50:27;3.03;;;1.40;;
73793;SDS011;62123;52.518;10.528;2022-07-23T10:57:57;2.67;;;1.25;;
73793;SDS011;62123;52.518;10.528;2022-07-23T11:00:24;3.23;;;1.23;;
73793;SDS011;62123;52.518;10.528;2022-07-23T11:02:51;2.95;;;1.42;;
73793;SDS011;62123;52.518;10.528;2022-07-23T11:05:21;4.03;;;1.67;;
73793;SDS011;62123;52.518;10.528;2022-07-23T11:10:32;2.65;;;1.30;;
73793;SDS011;62123;52.518;10.528;2022-07-23T11:21:38;3.10;;;1.08;;
73793;SDS011;62123;52.518;10.528;2022-07-23T11:24:15;3.63;;;1.48;;
73793;SDS011;62123;52.518;10.528;2022-07-23T11:31:59;2.90;;;1.48;;
73793;SDS011;62123;52.518;10.528;2022-07-23T11:34:31;3.10;;;1.58;;
73793;SDS011;62123;52.518;10.528;2022-07-23T11:37:01;3.20;;;1.30;;
73793;SDS011;62123;52.518;10.528;2022-07-23T11:39:29;2.60;;;1.20;;
73793;SDS011;62123;52.518;10.528;2022-07-23T11:41:56;3.50;;;1.20;;
73793;SDS011;62123;52.518;10.528;2022-07-23T11:47:11;2.70;;;1.00;;
73793;SDS011;62123;52.518;10.528;2022-07-23T11:49:37;2.60;;;1.20;;
73793;SDS011;62123;52.518;10.528;2022-07-23T11:54:32;3.67;;;1.20;;
73793;SDS011;62123;52.518;10.528;2022-07-23T11:56:59;2.85;;;1.10;;
73793;SDS011;62123;52.518;10.528;2022-07-23T11:59:26;2.85;;;1.10;;
73793;SDS011;62123;52.518;10.528;2022-07-23T12:02:10;3.22;;;1.00;;
73793;SDS011;62123;52.518;10.528;2022-07-23T12:04:46;2.83;;;1.17;;
73793;SDS011;62123;52.518;10.528;2022-07-23T12:07:26;2.78;;;1.05;;
73793;SDS011;62123;52.518;10.528;2022-07-23T12:09:52;2.55;;;1.20;;
73793;SDS011;62123;52.518;10.528;2022-07-23T12:12:18;2.93;;;1.30;;
73793;SDS011;62123;52.518;10.528;2022-07-23T12:14:47;3.42;;;1.48;;
73793;SDS011;62123;52.518;10.528;2022-07-23T12:17:14;2.70;;;1.30;;
73793;SDS011;62123;52.518;10.528;2022-07-23T12:19:42;3.13;;;1.20;;
73793;SDS011;62123;52.518;10.528;2022-07-23T12:22:08;2.85;;;1.23;;
73793;SDS011;62123;52.518;10.528;2022-07-23T12:24:56;2.77;;;1.10;;
73793;SDS011;62123;52.518;10.528;2022-07-23T12:27:26;3.22;;;2.15;;
73793;SDS011;62123;52.518;10.528;2022-07-23T12:29:52;2.78;;;1.20;;
73793;SDS011;62123;52.518;10.528;2022-07-23T12:32:22;2.60;;;1.27;;
73793;SDS011;62123;52.518;10.528;2022-07-23T12:35:10;2.85;;;1.10;;
73793;SDS011;62123;52.518;10.528;2022-07-23T12:37:36;2.22;;;1.10;;
73793;SDS011;62123;52.518;10.528;2022-07-23T12:42:58;2.75;;;1.27;;
73793;SDS011;62123;52.518;10.528;2022-07-23T12:45:45;3.22;;;1.10;;
73793;SDS011;62123;52.518;10.528;2022-07-23T12:48:16;3.28;;;1.17;;
73793;SDS011;62123;52.518;10.528;2022-07-23T12:53:09;2.80;;;1.33;;
73793;SDS011;62123;52.518;10.528;2022-07-23T12:55:41;2.67;;;1.40;;
73793;SDS011;62123;52.518;10.528;2022-07-23T12:58:08;2.43;;;1.10;;
73793;SDS011;62123;52.518;10.528;2022-07-23T13:03:32;2.38;;;1.08;;
73793;SDS011;62123;52.518;10.528;2022-07-23T13:06:00;2.58;;;1.08;;
73793;SDS011;62123;52.518;10.528;2022-07-23T13:08:27;2.10;;;0.63;;
73793;SDS011;62123;52.518;10.528;2022-07-23T13:10:53;2.30;;;0.90;;
73793;SDS011;62123;52.518;10.528;2022-07-23T13:13:20;2.50;;;1.05;;
73793;SDS011;62123;52.518;10.528;2022-07-23T13:15:47;2.53;;;1.20;;
73793;SDS011;62123;52.518;10.528;2022-07-23T13:18:13;2.70;;;1.17;;
73793;SDS011;62123;52.518;10.528;2022-07-23T13:20:38;2.67;;;1.08;;
73793;SDS011;62123;52.518;10.528;2022-07-23T13:23:05;2.70;;;1.23;;
73793;SDS011;62123;52.518;10.528;2022-07-23T13:25:31;2.60;;;1.08;;
73793;SDS011;62123;52.518;10.528;2022-07-23T13:27:57;2.30;;;1.10;;
73793;SDS011;62123;52.518;10.528;2022-07-23T13:30:22;2.38;;;0.80;;
73793;SDS011;62123;52.518;10.528;2022-07-23T13:32:48;2.33;;;0.90;;
73793;SDS011;62123;52.518;10.528;2022-07-23T13:35:13;2.40;;;0.90;;
73793;SDS011;62123;52.518;10.528;2022-07-23T13:37:39;2.40;;;1.00;;
73793;SDS011;62123;52.518;10.528;2022-07-23T13:40:05;2.40;;;1.13;;
73793;SDS011;62123;52.518;10.528;2022-07-23T13:42:31;2.25;;;0.90;;
73793;SDS011;62123;52.518;10.528;2022-07-23T13:44:56;3.47;;;1.03;;
73793;SDS011;62123;52.518;10.528;2022-07-23T13:47:22;2.78;;;1.10;;
73793;SDS011;62123;52.518;10.528;2022-07-23T13:49:51;2.10;;;0.63;;
73793;SDS011;62123;52.518;10.528;2022-07-23T13:52:16;2.25;;;0.82;;
73793;SDS011;62123;52.518;10.528;2022-07-23T13:54:41;2.50;;;1.10;;
73793;SDS011;62123;52.518;10.528;2022-07-23T13:57:08;2.67;;;1.13;;
73793;SDS011;62123;52.518;10.528;2022-07-23T13:59:34;3.42;;;1.30;;
73793;SDS011;62123;52.518;10.528;2022-07-23T14:02:01;2.35;;;0.85;;
73793;SDS011;62123;52.518;10.528;2022-07-23T14:04:27;2.60;;;1.10;;
73793;SDS011;62123;52.518;10.528;2022-07-23T14:06:53;2.00;;;0.70;;
73793;SDS011;62123;52.518;10.528;2022-07-23T14:09:18;2.27;;;0.97;;
73793;SDS011;62123;52.518;10.528;2022-07-23T14:11:44;2.40;;;1.10;;
73793;SDS011;62123;52.518;10.528;2022-07-23T14:14:09;2.33;;;0.90;;
73793;SDS011;62123;52.518;10.528;2022-07-23T14:16:35;2.40;;;1.10;;
73793;SDS011;62123;52.518;10.528;2022-07-23T14:19:00;2.42;;;1.15;;
73793;SDS011;62123;52.518;10.528;2022-07-23T14:23:51;2.20;;;0.90;;
73793;SDS011;62123;52.518;10.528;2022-07-23T14:26:17;2.13;;;1.00;;
73793;SDS011;62123;52.518;10.528;2022-07-23T14:28:43;2.38;;;0.90;;
73793;SDS011;62123;52.518;10.528;2022-07-23T14:31:08;2.87;;;1.20;;
73793;SDS011;62123;52.518;10.528;2022-07-23T14:33:33;2.40;;;1.03;;
73793;SDS011;62123;52.518;10.528;2022-07-23T14:35:59;2.50;;;1.17;;
73793;SDS011;62123;52.518;10.528;2022-07-23T14:38:24;2.40;;;0.63;;
73793;SDS011;62123;52.518;10.528;2022-07-23T14:40:50;2.20;;;0.90;;
73793;SDS011;62123;52.518;10.528;2022-07-23T14:43:15;2.20;;;0.88;;
73793;SDS011;62123;52.518;10.528;2022-07-23T14:45:41;2.17;;;0.80;;
73793;SDS011;62123;52.518;10.528;2022-07-23T14:48:07;2.38;;;0.60;;
73793;SDS011;62123;52.518;10.528;2022-07-23T14:50:33;2.10;;;0.80;;
73793;SDS011;62123;52.518;10.528;2022-07-23T14:52:58;2.50;;;1.20;;
73793;SDS011;62123;52.518;10.528;2022-07-23T14:55:23;2.20;;;0.80;;
73793;SDS011;62123;52.518;10.528;2022-07-23T14:57:49;2.10;;;0.60;;
73793;SDS011;62123;52.518;10.528;2022-07-23T15:00:14;2.45;;;0.95;;
73793;SDS011;62123;52.518;10.528;2022-07-23T15:02:41;2.70;;;1.10;;
73793;SDS011;62123;52.518;10.528;2022-07-23T15:05:06;2.10;;;0.82;;
73793;SDS011;62123;52.518;10.528;2022-07-23T15:07:32;2.30;;;0.93;;
73793;SDS011;62123;52.518;10.528;2022-07-23T15:09:58;2.53;;;0.90;;
73793;SDS011;62123;52.518;10.528;2022-07-23T15:12:23;2.30;;;0.90;;
73793;SDS011;62123;52.518;10.528;2022-07-23T15:14:49;2.20;;;0.90;;
73793;SDS011;62123;52.518;10.528;2022-07-23T15:17:15;2.07;;;0.73;;
73793;SDS011;62123;52.518;10.528;2022-07-23T15:19:40;2.10;;;0.90;;
73793;SDS011;62123;52.518;10.528;2022-07-23T15:22:06;2.00;;;0.90;;
73793;SDS011;62123;52.518;10.528;2022-07-23T15:24:31;2.33;;;1.07;;
73793;SDS011;62123;52.518;10.528;2022-07-23T15:26:57;2.80;;;1.37;;
73793;SDS011;62123;52.518;10.528;2022-07-23T15:29:22;2.30;;;0.93;;
73793;SDS011;62123;52.518;10.528;2022-07-23T15:31:48;2.10;;;0.70;;
73793;SDS011;62123;52.518;10.528;2022-07-23T15:34:14;2.30;;;1.17;;
73793;SDS011;62123;52.518;10.528;2022-07-23T15:36:39;2.40;;;0.90;;
73793;SDS011;62123;52.518;10.528;2022-07-23T15:39:05;2.30;;;1.00;;
73793;SDS011;62123;52.518;10.528;2022-07-23T15:41:31;1.90;;;0.70;;